createdAt,value
2022-09-06T00:01:49.332Z,96.38
2022-09-06T00:04:51.197Z,96.80
2022-09-06T00:07:52.934Z,100.00
2022-09-06T00:11:01.067Z,100.00
2022-09-06T00:14:03.063Z,100.00
2022-09-06T00:17:04.690Z,100.00
2022-09-06T00:20:09.193Z,100.00
2022-09-06T00:23:10.878Z,100.00
2022-09-06T00:26:12.569Z,100.00
2022-09-06T00:29:14.163Z,100.00
2022-09-06T00:32:16.058Z,100.00
2022-09-06T00:35:18.234Z,100.00
2022-09-06T00:38:19.852Z,100.00
2022-09-06T00:41:21.445Z,100.00
2022-09-06T00:44:23.056Z,100.00
2022-09-06T00:47:24.807Z,100.00
2022-09-06T00:50:26.417Z,100.00
2022-09-06T00:53:28.102Z,100.00
2022-09-06T00:56:31.317Z,100.00
2022-09-06T00:59:33.702Z,100.00
2022-09-06T01:02:35.468Z,100.00
2022-09-06T01:06:00.050Z,100.00
2022-09-06T01:09:01.633Z,100.00
2022-09-06T01:12:15.790Z,100.00
2022-09-06T01:15:29.747Z,100.00
2022-09-06T01:18:34.157Z,100.00
2022-09-06T01:21:41.886Z,100.00
2022-09-06T01:24:50.666Z,100.00
2022-09-06T01:28:03.234Z,100.00
2022-09-06T01:31:08.756Z,100.00
2022-09-06T01:34:20.049Z,99.97
2022-09-06T01:37:22.381Z,99.26
2022-09-06T01:40:24.016Z,99.88
2022-09-06T01:43:33.451Z,98.77
2022-09-06T01:46:40.459Z,97.65
2022-09-06T01:49:58.408Z,96.62
2022-09-06T01:53:09.737Z,96.27
2022-09-06T01:56:19.267Z,95.50
2022-09-06T01:59:50.281Z,95.78
2022-09-06T02:03:00.929Z,96.49
2022-09-06T02:06:07.450Z,95.13
2022-09-06T02:09:16.255Z,95.20
2022-09-06T02:12:17.958Z,95.35
2022-09-06T02:15:23.861Z,95.07
2022-09-06T02:18:27.459Z,95.08
2022-09-06T02:21:30.169Z,95.64
2022-09-06T02:24:31.809Z,95.59
2022-09-06T02:27:33.379Z,95.84
2022-09-06T02:30:35.375Z,96.92
2022-09-06T02:33:37.154Z,97.28
2022-09-06T02:36:38.906Z,97.24
2022-09-06T02:39:40.678Z,97.15
2022-09-06T02:42:42.384Z,97.12
2022-09-06T02:45:44.006Z,97.35
2022-09-06T02:48:46.786Z,97.47
2022-09-06T02:51:48.382Z,97.72
2022-09-06T02:54:49.992Z,97.63
2022-09-06T02:57:52.173Z,97.62
2022-09-06T03:00:54.050Z,97.69
2022-09-06T03:03:56.674Z,97.46
2022-09-06T03:06:58.309Z,96.41
2022-09-06T03:10:00.242Z,96.66
2022-09-06T03:13:01.930Z,96.65
2022-09-06T03:16:03.608Z,96.82
2022-09-06T03:19:05.210Z,97.75
2022-09-06T03:22:06.816Z,98.03
2022-09-06T03:25:09.234Z,98.81
2022-09-06T03:28:10.866Z,97.96
2022-09-06T03:31:12.574Z,97.79
2022-09-06T03:34:14.205Z,96.05
2022-09-06T03:37:15.893Z,95.83
2022-09-06T03:40:18.448Z,95.01
2022-09-06T03:43:20.961Z,95.43
2022-09-06T03:46:22.543Z,96.47
2022-09-06T03:49:24.207Z,95.97
2022-09-06T03:52:25.795Z,96.96
2022-09-06T03:55:27.349Z,98.01
2022-09-06T03:58:30.278Z,98.08
2022-09-06T04:01:32.051Z,99.08
2022-09-06T04:04:34.295Z,98.76
2022-09-06T04:07:37.978Z,99.20
2022-09-06T04:10:40.011Z,100.00
2022-09-06T04:13:41.789Z,100.00
2022-09-06T04:16:43.434Z,100.00
2022-09-06T04:19:45.095Z,100.00
2022-09-06T04:22:46.656Z,100.00
2022-09-06T04:25:52.332Z,100.00
2022-09-06T04:28:53.904Z,100.00
2022-09-06T04:31:55.530Z,100.00
2022-09-06T04:34:57.334Z,100.00
2022-09-06T04:38:02.289Z,100.00
2022-09-06T04:41:04.600Z,100.00
2022-09-06T04:44:06.177Z,100.00
2022-09-06T04:47:09.909Z,100.00
2022-09-06T04:50:11.522Z,100.00
2022-09-06T04:53:13.110Z,100.00
2022-09-06T04:56:24.258Z,100.00
2022-09-06T04:59:25.813Z,100.00
2022-09-06T05:02:27.453Z,100.00
2022-09-06T05:05:29.072Z,100.00
2022-09-06T05:08:30.623Z,100.00
2022-09-06T05:11:32.181Z,100.00
2022-09-06T05:14:33.926Z,100.00
2022-09-06T05:17:35.788Z,100.00
2022-09-06T05:20:37.387Z,100.00
2022-09-06T05:23:38.982Z,100.00
2022-09-06T05:26:40.637Z,100.00
2022-09-06T05:29:42.250Z,100.00
2022-09-06T05:32:44.076Z,100.00
2022-09-06T05:35:45.643Z,100.00
2022-09-06T05:38:47.214Z,100.00
2022-09-06T05:41:48.777Z,100.00
2022-09-06T05:44:50.593Z,100.00
2022-09-06T05:47:52.305Z,100.00
2022-09-06T05:51:01.126Z,100.00
2022-09-06T05:54:02.733Z,100.00
2022-09-06T05:57:04.349Z,100.00
2022-09-06T06:00:07.257Z,100.00
2022-09-06T06:03:12.970Z,100.00
2022-09-06T06:06:14.578Z,100.00
2022-09-06T06:09:16.410Z,100.00
2022-09-06T06:12:18.127Z,100.00
2022-09-06T06:15:20.249Z,100.00
2022-09-06T06:18:22.069Z,100.00
2022-09-06T06:21:25.293Z,100.00
2022-09-06T06:24:27.248Z,100.00
2022-09-06T06:27:28.806Z,100.00
2022-09-06T06:30:30.469Z,100.00
2022-09-06T06:33:32.629Z,100.00
2022-09-06T06:36:34.820Z,100.00
2022-09-06T06:39:37.014Z,100.00
2022-09-06T06:42:38.800Z,100.00
2022-09-06T06:45:40.656Z,100.00
2022-09-06T06:48:43.382Z,100.00
2022-09-06T06:51:45.835Z,100.00
2022-09-06T06:54:49.246Z,100.00
2022-09-06T06:57:50.833Z,100.00
2022-09-06T07:00:52.609Z,100.00
2022-09-06T07:03:55.066Z,100.00
2022-09-06T07:10:34.616Z,100.00
2022-09-06T07:13:36.910Z,99.87
2022-09-06T07:16:38.659Z,99.97
2022-09-06T07:26:25.345Z,100.00
2022-09-06T07:29:26.978Z,100.00
2022-09-06T07:32:28.629Z,100.00
2022-09-06T07:35:30.258Z,100.00
2022-09-06T07:38:32.066Z,100.00
2022-09-06T07:41:33.692Z,100.00
2022-09-06T07:44:35.323Z,100.00
2022-09-06T07:51:05.522Z,100.00
2022-09-06T07:54:29.379Z,100.00
2022-09-06T07:57:29.655Z,100.00
2022-09-06T08:00:32.061Z,100.00
2022-09-06T08:03:33.654Z,100.00
2022-09-06T08:09:57.797Z,100.00
2022-09-06T08:12:59.396Z,100.00
2022-09-06T08:16:01.501Z,100.00
2022-09-06T08:19:04.738Z,99.47
2022-09-06T08:22:06.325Z,98.24
2022-09-06T08:25:08.239Z,98.20
2022-09-06T08:28:09.788Z,96.77
2022-09-06T08:31:14.343Z,95.18
2022-09-06T08:34:16.074Z,94.19
2022-09-06T08:37:20.041Z,94.77
2022-09-06T08:40:38.377Z,95.30
2022-09-06T08:43:41.227Z,93.55
2022-09-06T08:47:04.817Z,93.35
2022-09-06T08:50:07.316Z,94.81
2022-09-06T08:53:18.090Z,95.39
2022-09-06T08:56:22.348Z,95.82
2022-09-06T08:59:24.026Z,95.41
2022-09-06T09:02:25.730Z,96.29
2022-09-06T09:05:31.913Z,96.19
2022-09-06T09:08:43.104Z,97.16
2022-09-06T09:11:46.110Z,95.16
2022-09-06T09:14:48.479Z,94.65
2022-09-06T09:17:50.752Z,94.53
2022-09-06T09:20:52.805Z,94.41
2022-09-06T09:23:55.343Z,93.60
2022-09-06T09:26:58.224Z,91.79
2022-09-06T09:33:23.450Z,90.52
2022-09-06T09:36:25.390Z,91.10
2022-09-06T09:39:33.778Z,89.23
2022-09-06T09:42:36.187Z,86.55
2022-09-06T09:45:37.873Z,88.21
2022-09-06T09:48:40.286Z,88.24
2022-09-06T09:51:47.304Z,87.63
2022-09-06T09:54:53.715Z,87.39
2022-09-06T09:57:56.313Z,87.54
2022-09-06T10:01:11.441Z,87.14
2022-09-06T10:07:55.050Z,86.52
2022-09-06T10:10:58.062Z,86.41
2022-09-06T10:14:10.635Z,88.09
2022-09-06T10:17:21.570Z,90.28
2022-09-06T10:20:25.487Z,90.50
2022-09-06T10:27:07.789Z,91.62
2022-09-06T10:30:09.530Z,91.44
2022-09-06T10:33:11.153Z,90.84
2022-09-06T10:36:32.344Z,90.88
2022-09-06T10:39:56.043Z,89.46
2022-09-06T10:42:59.215Z,89.47
2022-09-06T10:46:09.404Z,88.76
2022-09-06T10:49:12.409Z,86.93
2022-09-06T10:52:15.693Z,87.00
2022-09-06T10:55:17.879Z,84.87
2022-09-06T10:58:25.079Z,85.54
2022-09-06T11:01:32.487Z,84.66
2022-09-06T11:11:26.145Z,86.52
2022-09-06T11:14:27.795Z,85.99
2022-09-06T11:17:41.230Z,85.80
2022-09-06T11:20:44.588Z,86.21
2022-09-06T11:23:53.189Z,86.69
2022-09-06T11:27:05.016Z,87.89
2022-09-06T11:30:06.912Z,87.06
2022-09-06T11:33:17.885Z,89.79
2022-09-06T11:36:19.536Z,92.24
2022-09-06T11:42:47.846Z,96.05
2022-09-06T11:45:50.385Z,97.03
2022-09-06T11:49:08.752Z,99.15
2022-09-06T11:52:29.321Z,99.70
2022-09-06T11:55:40.243Z,100.00
2022-09-06T11:58:41.861Z,100.00
2022-09-06T12:01:59.115Z,100.00
2022-09-06T12:05:07.292Z,100.00
2022-09-06T12:08:30.415Z,100.00
2022-09-06T12:11:41.863Z,100.00
2022-09-06T12:14:46.153Z,100.00
2022-09-06T12:17:47.953Z,100.00
2022-09-06T12:20:51.243Z,100.00
2022-09-06T12:23:52.833Z,100.00
2022-09-06T12:27:15.765Z,100.00
2022-09-06T12:30:30.438Z,100.00
2022-09-06T12:33:33.080Z,100.00
2022-09-06T12:36:34.749Z,100.00
2022-09-06T12:39:36.569Z,100.00
2022-09-06T12:42:38.251Z,100.00
2022-09-06T12:45:46.829Z,100.00
2022-09-06T12:49:07.244Z,100.00
2022-09-06T12:52:13.625Z,100.00
2022-09-06T12:55:19.781Z,100.00
2022-09-06T12:58:25.393Z,100.00
2022-09-06T13:01:31.212Z,100.00
2022-09-06T13:04:39.862Z,100.00
2022-09-06T13:07:43.334Z,100.00
2022-09-06T13:10:45.285Z,100.00
2022-09-06T13:13:48.387Z,100.00
2022-09-06T13:16:50.915Z,100.00
2022-09-06T13:19:52.696Z,100.00
2022-09-06T13:23:04.594Z,100.00
2022-09-06T13:26:06.246Z,100.00
2022-09-06T13:29:10.894Z,100.00
2022-09-06T13:32:14.593Z,100.00
2022-09-06T13:35:23.878Z,100.00
2022-09-06T13:38:32.870Z,100.00
2022-09-06T13:41:38.245Z,100.00
2022-09-06T13:44:40.127Z,100.00
2022-09-06T13:47:41.974Z,100.00
2022-09-06T13:50:43.570Z,100.00
2022-09-06T13:53:45.427Z,100.00
2022-09-06T13:56:48.515Z,100.00
2022-09-06T13:59:50.329Z,100.00
2022-09-06T14:02:52.330Z,100.00
2022-09-06T14:05:54.013Z,100.00
2022-09-06T14:09:06.970Z,100.00
2022-09-06T14:12:10.267Z,100.00
2022-09-06T14:15:13.381Z,100.00
2022-09-06T14:18:15.347Z,100.00
2022-09-06T14:21:16.982Z,100.00
2022-09-06T14:24:18.721Z,100.00
2022-09-06T14:27:20.652Z,100.00
2022-09-06T14:30:22.477Z,100.00
2022-09-06T14:33:24.109Z,100.00
2022-09-06T14:36:26.518Z,100.00
2022-09-06T14:39:28.242Z,100.00
2022-09-06T14:42:30.393Z,100.00
2022-09-06T14:45:35.045Z,100.00
2022-09-06T14:48:40.352Z,100.00
2022-09-06T14:51:44.254Z,100.00
2022-09-06T14:54:45.865Z,100.00
2022-09-06T14:57:47.481Z,96.41
2022-09-06T15:00:50.217Z,91.19
2022-09-06T15:03:53.584Z,91.51
2022-09-06T15:06:55.340Z,92.28
2022-09-06T15:09:57.052Z,93.56
2022-09-06T15:12:58.694Z,90.61
2022-09-06T15:16:00.463Z,92.53
2022-09-06T15:19:05.029Z,91.72
2022-09-06T15:22:07.216Z,84.51
2022-09-06T15:25:09.079Z,86.52
2022-09-06T15:28:10.698Z,88.86
2022-09-06T15:31:12.969Z,88.75
2022-09-06T15:34:14.680Z,88.53
2022-09-06T15:37:16.290Z,83.40
2022-09-06T15:40:18.012Z,83.19
2022-09-06T15:43:20.096Z,78.50
2022-09-06T15:46:39.816Z,80.12
2022-09-06T15:49:41.659Z,82.25
2022-09-06T15:52:43.262Z,82.38
2022-09-06T15:55:56.740Z,84.11
2022-09-06T15:58:58.341Z,87.30
2022-09-06T16:01:59.998Z,89.23
2022-09-06T16:05:01.620Z,89.71
2022-09-06T16:08:03.352Z,91.49
2022-09-06T16:11:09.220Z,90.84
2022-09-06T16:14:12.618Z,91.79
2022-09-06T16:17:14.625Z,90.85
2022-09-06T16:20:16.249Z,92.36
2022-09-06T16:23:18.013Z,93.32
2022-09-06T16:26:21.753Z,93.59
2022-09-06T16:29:23.702Z,91.65
2022-09-06T16:32:25.468Z,89.72
2022-09-06T16:35:27.082Z,80.50
2022-09-06T16:38:31.740Z,72.44
2022-09-06T16:41:43.095Z,66.42
2022-09-06T16:44:44.692Z,65.54
2022-09-06T16:47:46.597Z,68.92
2022-09-06T16:50:48.178Z,73.02
2022-09-06T16:53:49.796Z,71.17
2022-09-06T16:56:51.367Z,70.24
2022-09-06T16:59:53.306Z,70.29
2022-09-06T17:02:55.318Z,70.78
2022-09-06T17:05:57.037Z,71.07
2022-09-06T17:08:59.014Z,72.46
2022-09-06T17:12:00.682Z,70.37
2022-09-06T17:15:02.296Z,69.65
2022-09-06T17:18:04.142Z,68.69
2022-09-06T17:21:07.696Z,68.03
2022-09-06T17:24:09.683Z,71.75
2022-09-06T17:27:13.449Z,68.80
2022-09-06T17:30:15.305Z,67.12
2022-09-06T17:33:17.795Z,65.43
2022-09-06T17:36:21.309Z,66.66
2022-09-06T17:39:22.903Z,71.77
2022-09-06T17:42:24.757Z,75.27
2022-09-06T17:45:26.716Z,78.16
2022-09-06T17:48:28.460Z,79.94
2022-09-06T17:51:30.150Z,82.73
2022-09-06T17:54:31.936Z,84.00
2022-09-06T17:57:34.538Z,85.89
2022-09-06T18:00:40.379Z,86.88
2022-09-06T18:03:42.348Z,88.18
2022-09-06T18:06:46.366Z,88.57
2022-09-06T18:09:48.003Z,88.82
2022-09-06T18:12:50.324Z,89.12
2022-09-06T18:15:52.025Z,89.61
2022-09-06T18:18:54.808Z,91.18
2022-09-06T18:21:57.430Z,91.36
2022-09-06T18:24:59.243Z,92.72
2022-09-06T18:28:00.883Z,93.87
2022-09-06T18:31:06.546Z,95.22
2022-09-06T18:34:09.130Z,95.72
2022-09-06T18:37:10.948Z,96.78
2022-09-06T18:40:12.616Z,96.89
2022-09-06T18:43:15.219Z,97.07
2022-09-06T18:46:17.068Z,97.69
2022-09-06T18:49:19.287Z,98.08
2022-09-06T18:52:20.982Z,98.28
2022-09-06T18:55:22.611Z,98.40
2022-09-06T18:58:24.316Z,98.84
2022-09-06T19:01:27.056Z,99.11
2022-09-06T19:04:28.839Z,98.96
2022-09-06T19:07:30.501Z,99.06
2022-09-06T19:10:32.157Z,99.42
2022-09-06T19:13:34.005Z,100.00
2022-09-06T19:16:36.213Z,99.81
2022-09-06T19:19:37.929Z,99.71
2022-09-06T19:22:39.540Z,100.00
2022-09-06T19:25:41.159Z,99.94
2022-09-06T19:28:43.688Z,99.85
2022-09-06T19:31:45.676Z,99.69
2022-09-06T19:34:47.326Z,99.28
2022-09-06T19:37:48.918Z,99.29
2022-09-06T19:40:50.539Z,98.71
2022-09-06T19:43:53.137Z,98.81
2022-09-06T19:46:55.200Z,98.43
2022-09-06T19:49:57.003Z,98.40
2022-09-06T19:52:58.608Z,98.79
2022-09-06T19:56:00.379Z,98.25
2022-09-06T19:59:05.894Z,93.72
2022-09-06T20:02:08.754Z,90.69
2022-09-06T20:05:10.435Z,91.19
2022-09-06T20:08:12.142Z,90.35
2022-09-06T20:11:13.802Z,90.64
2022-09-06T20:14:15.666Z,90.33
2022-09-06T20:17:33.290Z,90.67
2022-09-06T20:20:35.573Z,91.40
2022-09-06T20:23:37.228Z,91.33
2022-09-06T20:26:38.948Z,91.58
2022-09-06T20:29:40.566Z,90.33
2022-09-06T20:32:42.412Z,87.30
2022-09-06T20:35:44.070Z,87.06
2022-09-06T20:38:46.043Z,89.38
2022-09-06T20:41:47.609Z,90.38
2022-09-06T20:44:49.330Z,91.20
2022-09-06T20:47:50.923Z,92.22
2022-09-06T20:50:56.318Z,92.23
2022-09-06T20:53:58.697Z,93.43
2022-09-06T20:57:00.288Z,95.80
2022-09-06T21:00:01.991Z,96.13
2022-09-06T21:03:03.569Z,95.94
2022-09-06T21:06:06.253Z,95.83
2022-09-06T21:09:08.972Z,96.00
2022-09-06T21:12:10.573Z,96.61
2022-09-06T21:15:12.207Z,94.79
2022-09-06T21:18:13.929Z,95.70
2022-09-06T21:21:15.971Z,98.58
2022-09-06T21:24:17.785Z,97.67
2022-09-06T21:27:19.588Z,94.26
2022-09-06T21:30:21.160Z,95.48
2022-09-06T21:33:22.722Z,96.21
2022-09-06T21:36:25.253Z,97.96
2022-09-06T21:39:26.864Z,98.47
2022-09-06T21:42:28.861Z,97.77
2022-09-06T21:45:30.563Z,96.75
2022-09-06T21:48:32.431Z,98.06
2022-09-06T21:51:34.468Z,98.74
2022-09-06T21:54:36.066Z,99.64
2022-09-06T21:57:37.688Z,99.63
2022-09-06T22:00:39.620Z,100.00
2022-09-06T22:03:41.382Z,100.00
2022-09-06T22:06:43.008Z,100.00
2022-09-06T22:09:44.749Z,100.00
2022-09-06T22:12:46.358Z,100.00
2022-09-06T22:15:48.063Z,100.00
2022-09-06T22:18:49.991Z,100.00
2022-09-06T22:21:54.771Z,100.00
2022-09-06T22:24:56.460Z,100.00
2022-09-06T22:28:01.416Z,100.00
2022-09-06T22:31:03.055Z,100.00
2022-09-06T22:34:04.956Z,100.00
2022-09-06T22:37:06.550Z,100.00
2022-09-06T22:40:08.529Z,100.00
2022-09-06T22:43:10.240Z,100.00
2022-09-06T22:46:12.895Z,100.00
2022-09-06T22:49:14.514Z,100.00
2022-09-06T22:52:16.293Z,100.00
2022-09-06T22:55:18.024Z,100.00
2022-09-06T22:58:19.658Z,100.00
2022-09-06T23:01:21.349Z,100.00
2022-09-06T23:04:23.114Z,100.00
2022-09-06T23:07:24.742Z,100.00
2022-09-06T23:10:26.321Z,100.00
2022-09-06T23:13:28.011Z,100.00
2022-09-06T23:16:29.710Z,100.00
2022-09-06T23:19:31.350Z,100.00
2022-09-06T23:22:33.221Z,100.00
2022-09-06T23:25:38.920Z,100.00
2022-09-06T23:28:40.834Z,100.00
2022-09-06T23:31:42.555Z,100.00
2022-09-06T23:34:44.278Z,100.00
2022-09-06T23:37:45.934Z,100.00
2022-09-06T23:40:47.574Z,100.00
2022-09-06T23:43:49.493Z,100.00
2022-09-06T23:46:51.271Z,100.00
2022-09-06T23:49:53.146Z,100.00
2022-09-06T23:52:54.849Z,100.00
2022-09-06T23:55:56.502Z,100.00
2022-09-06T23:58:58.219Z,100.00
